sensor_id;sensor_type;location;lat;lon;timestamp;P1;durP1;ratioP1;P2;durP2;ratioP2
41705;SDS011;27385;51.096;17.190;2023-07-13T00:00:29;8.10;;;2.50;;
41705;SDS011;27385;51.096;17.190;2023-07-13T00:03:20;10.60;;;2.40;;
41705;SDS011;27385;51.096;17.190;2023-07-13T00:05:59;7.60;;;1.90;;
41705;SDS011;27385;51.096;17.190;2023-07-13T00:08:31;7.30;;;2.00;;
41705;SDS011;27385;51.096;17.190;2023-07-13T00:11:02;8.50;;;2.10;;
41705;SDS011;27385;51.096;17.190;2023-07-13T00:13:34;9.90;;;2.00;;
41705;SDS011;27385;51.096;17.190;2023-07-13T00:16:07;10.50;;;2.40;;
41705;SDS011;27385;51.096;17.190;2023-07-13T00:18:39;9.90;;;1.80;;
41705;SDS011;27385;51.096;17.190;2023-07-13T00:21:10;8.20;;;2.20;;
41705;SDS011;27385;51.096;17.190;2023-07-13T00:23:42;7.60;;;2.40;;
41705;SDS011;27385;51.096;17.190;2023-07-13T00:26:13;6.40;;;1.60;;
41705;SDS011;27385;51.096;17.190;2023-07-13T00:28:45;7.80;;;2.20;;
41705;SDS011;27385;51.096;17.190;2023-07-13T00:31:15;12.50;;;2.60;;
41705;SDS011;27385;51.096;17.190;2023-07-13T00:33:46;7.80;;;2.00;;
41705;SDS011;27385;51.096;17.190;2023-07-13T00:36:19;10.60;;;2.40;;
41705;SDS011;27385;51.096;17.190;2023-07-13T00:38:50;11.40;;;3.00;;
41705;SDS011;27385;51.096;17.190;2023-07-13T00:41:21;11.60;;;2.70;;
41705;SDS011;27385;51.096;17.190;2023-07-13T00:43:52;12.50;;;3.20;;
41705;SDS011;27385;51.096;17.190;2023-07-13T00:46:24;9.50;;;2.40;;
41705;SDS011;27385;51.096;17.190;2023-07-13T00:48:57;10.60;;;2.50;;
41705;SDS011;27385;51.096;17.190;2023-07-13T00:51:32;11.70;;;2.60;;
41705;SDS011;27385;51.096;17.190;2023-07-13T00:54:09;8.90;;;2.20;;
41705;SDS011;27385;51.096;17.190;2023-07-13T00:56:41;10.60;;;2.90;;
41705;SDS011;27385;51.096;17.190;2023-07-13T00:59:15;9.80;;;3.10;;
41705;SDS011;27385;51.096;17.190;2023-07-13T01:01:48;10.70;;;2.50;;
41705;SDS011;27385;51.096;17.190;2023-07-13T01:04:20;12.40;;;3.40;;
41705;SDS011;27385;51.096;17.190;2023-07-13T01:06:52;11.70;;;2.90;;
41705;SDS011;27385;51.096;17.190;2023-07-13T01:09:25;10.30;;;2.80;;
41705;SDS011;27385;51.096;17.190;2023-07-13T01:11:57;12.00;;;2.90;;
41705;SDS011;27385;51.096;17.190;2023-07-13T01:14:28;12.80;;;3.00;;
41705;SDS011;27385;51.096;17.190;2023-07-13T01:16:59;12.70;;;2.60;;
41705;SDS011;27385;51.096;17.190;2023-07-13T01:19:32;15.90;;;3.30;;
41705;SDS011;27385;51.096;17.190;2023-07-13T01:22:07;13.00;;;3.00;;
41705;SDS011;27385;51.096;17.190;2023-07-13T01:24:40;12.90;;;3.40;;
41705;SDS011;27385;51.096;17.190;2023-07-13T01:27:13;15.10;;;3.60;;
41705;SDS011;27385;51.096;17.190;2023-07-13T01:29:45;12.30;;;3.30;;
41705;SDS011;27385;51.096;17.190;2023-07-13T01:32:17;12.70;;;3.80;;
41705;SDS011;27385;51.096;17.190;2023-07-13T01:34:51;10.80;;;2.80;;
41705;SDS011;27385;51.096;17.190;2023-07-13T01:37:23;15.70;;;3.30;;
41705;SDS011;27385;51.096;17.190;2023-07-13T01:39:54;11.90;;;2.70;;
41705;SDS011;27385;51.096;17.190;2023-07-13T01:42:25;12.30;;;3.50;;
41705;SDS011;27385;51.096;17.190;2023-07-13T01:45:12;15.30;;;3.00;;
41705;SDS011;27385;51.096;17.190;2023-07-13T01:47:43;13.30;;;3.00;;
41705;SDS011;27385;51.096;17.190;2023-07-13T01:50:14;14.10;;;3.00;;
41705;SDS011;27385;51.096;17.190;2023-07-13T01:52:45;15.00;;;3.80;;
41705;SDS011;27385;51.096;17.190;2023-07-13T01:55:16;15.70;;;3.30;;
41705;SDS011;27385;51.096;17.190;2023-07-13T01:57:48;10.40;;;3.10;;
41705;SDS011;27385;51.096;17.190;2023-07-13T02:00:19;13.20;;;3.60;;
41705;SDS011;27385;51.096;17.190;2023-07-13T02:02:50;11.50;;;3.30;;
41705;SDS011;27385;51.096;17.190;2023-07-13T02:05:21;9.80;;;3.10;;
41705;SDS011;27385;51.096;17.190;2023-07-13T02:07:52;12.90;;;3.90;;
41705;SDS011;27385;51.096;17.190;2023-07-13T02:10:23;11.50;;;3.50;;
41705;SDS011;27385;51.096;17.190;2023-07-13T02:12:53;14.20;;;3.30;;
41705;SDS011;27385;51.096;17.190;2023-07-13T02:15:24;11.20;;;2.80;;
41705;SDS011;27385;51.096;17.190;2023-07-13T02:17:55;11.10;;;2.90;;
41705;SDS011;27385;51.096;17.190;2023-07-13T02:20:26;15.10;;;4.20;;
41705;SDS011;27385;51.096;17.190;2023-07-13T02:22:57;12.60;;;3.00;;
41705;SDS011;27385;51.096;17.190;2023-07-13T02:25:29;11.60;;;3.50;;
41705;SDS011;27385;51.096;17.190;2023-07-13T02:27:59;15.90;;;3.40;;
41705;SDS011;27385;51.096;17.190;2023-07-13T02:30:31;10.90;;;3.40;;
41705;SDS011;27385;51.096;17.190;2023-07-13T02:33:02;12.20;;;3.60;;
41705;SDS011;27385;51.096;17.190;2023-07-13T02:35:33;12.50;;;3.20;;
41705;SDS011;27385;51.096;17.190;2023-07-13T02:38:04;14.70;;;3.60;;
41705;SDS011;27385;51.096;17.190;2023-07-13T02:40:36;14.30;;;4.40;;
41705;SDS011;27385;51.096;17.190;2023-07-13T02:43:07;15.60;;;4.10;;
41705;SDS011;27385;51.096;17.190;2023-07-13T02:45:38;14.10;;;4.10;;
41705;SDS011;27385;51.096;17.190;2023-07-13T02:48:12;21.50;;;4.00;;
41705;SDS011;27385;51.096;17.190;2023-07-13T02:50:45;11.40;;;3.70;;
41705;SDS011;27385;51.096;17.190;2023-07-13T02:53:15;10.80;;;3.80;;
41705;SDS011;27385;51.096;17.190;2023-07-13T02:55:46;13.40;;;3.80;;
41705;SDS011;27385;51.096;17.190;2023-07-13T02:58:17;12.70;;;3.90;;
41705;SDS011;27385;51.096;17.190;2023-07-13T03:00:48;15.60;;;4.20;;
41705;SDS011;27385;51.096;17.190;2023-07-13T03:03:19;9.50;;;3.20;;
41705;SDS011;27385;51.096;17.190;2023-07-13T03:05:59;17.40;;;3.70;;
41705;SDS011;27385;51.096;17.190;2023-07-13T03:08:31;12.50;;;3.70;;
41705;SDS011;27385;51.096;17.190;2023-07-13T03:11:03;9.40;;;3.30;;
41705;SDS011;27385;51.096;17.190;2023-07-13T03:13:36;13.80;;;3.80;;
41705;SDS011;27385;51.096;17.190;2023-07-13T03:16:07;15.10;;;4.10;;
41705;SDS011;27385;51.096;17.190;2023-07-13T03:18:39;18.10;;;4.00;;
41705;SDS011;27385;51.096;17.190;2023-07-13T03:21:10;10.60;;;3.70;;
41705;SDS011;27385;51.096;17.190;2023-07-13T03:23:40;15.00;;;3.90;;
41705;SDS011;27385;51.096;17.190;2023-07-13T03:26:12;13.50;;;4.00;;
41705;SDS011;27385;51.096;17.190;2023-07-13T03:28:45;14.60;;;4.30;;
41705;SDS011;27385;51.096;17.190;2023-07-13T03:31:17;15.10;;;4.30;;
41705;SDS011;27385;51.096;17.190;2023-07-13T03:33:49;12.40;;;3.90;;
41705;SDS011;27385;51.096;17.190;2023-07-13T03:36:21;14.40;;;4.10;;
41705;SDS011;27385;51.096;17.190;2023-07-13T03:38:53;16.90;;;4.30;;
41705;SDS011;27385;51.096;17.190;2023-07-13T03:41:26;14.00;;;5.10;;
41705;SDS011;27385;51.096;17.190;2023-07-13T03:43:57;12.90;;;4.20;;
41705;SDS011;27385;51.096;17.190;2023-07-13T03:46:27;15.60;;;4.20;;
41705;SDS011;27385;51.096;17.190;2023-07-13T03:48:59;17.60;;;4.90;;
41705;SDS011;27385;51.096;17.190;2023-07-13T03:51:30;13.60;;;4.80;;
41705;SDS011;27385;51.096;17.190;2023-07-13T03:54:02;14.30;;;4.40;;
41705;SDS011;27385;51.096;17.190;2023-07-13T03:56:33;17.10;;;5.20;;
41705;SDS011;27385;51.096;17.190;2023-07-13T03:59:04;13.10;;;4.80;;
41705;SDS011;27385;51.096;17.190;2023-07-13T04:01:34;11.80;;;3.90;;
41705;SDS011;27385;51.096;17.190;2023-07-13T04:04:06;16.80;;;4.90;;
41705;SDS011;27385;51.096;17.190;2023-07-13T04:06:38;13.70;;;4.60;;
41705;SDS011;27385;51.096;17.190;2023-07-13T04:09:09;10.90;;;4.20;;
41705;SDS011;27385;51.096;17.190;2023-07-13T04:11:40;14.70;;;4.70;;
41705;SDS011;27385;51.096;17.190;2023-07-13T04:14:11;14.20;;;5.40;;
41705;SDS011;27385;51.096;17.190;2023-07-13T04:16:41;12.40;;;5.20;;
41705;SDS011;27385;51.096;17.190;2023-07-13T04:19:13;11.70;;;4.70;;
41705;SDS011;27385;51.096;17.190;2023-07-13T04:21:44;12.50;;;4.60;;
41705;SDS011;27385;51.096;17.190;2023-07-13T04:24:15;14.30;;;4.50;;
41705;SDS011;27385;51.096;17.190;2023-07-13T04:26:46;11.10;;;4.30;;
41705;SDS011;27385;51.096;17.190;2023-07-13T04:29:17;12.80;;;5.00;;
41705;SDS011;27385;51.096;17.190;2023-07-13T04:31:48;17.20;;;4.50;;
41705;SDS011;27385;51.096;17.190;2023-07-13T04:34:19;15.70;;;5.60;;
41705;SDS011;27385;51.096;17.190;2023-07-13T04:36:50;25.00;;;5.60;;
41705;SDS011;27385;51.096;17.190;2023-07-13T04:39:21;16.10;;;4.90;;
41705;SDS011;27385;51.096;17.190;2023-07-13T04:41:52;14.20;;;4.60;;
41705;SDS011;27385;51.096;17.190;2023-07-13T04:44:23;11.10;;;3.50;;
41705;SDS011;27385;51.096;17.190;2023-07-13T04:46:54;10.80;;;1.90;;
41705;SDS011;27385;51.096;17.190;2023-07-13T04:49:25;10.10;;;1.80;;
41705;SDS011;27385;51.096;17.190;2023-07-13T04:51:56;9.60;;;2.00;;
41705;SDS011;27385;51.096;17.190;2023-07-13T04:54:27;11.60;;;2.20;;
41705;SDS011;27385;51.096;17.190;2023-07-13T04:56:57;8.30;;;1.40;;
41705;SDS011;27385;51.096;17.190;2023-07-13T04:59:28;7.60;;;1.30;;
41705;SDS011;27385;51.096;17.190;2023-07-13T05:01:59;5.70;;;1.20;;
41705;SDS011;27385;51.096;17.190;2023-07-13T05:04:31;6.70;;;1.30;;
41705;SDS011;27385;51.096;17.190;2023-07-13T05:07:02;6.30;;;1.20;;
41705;SDS011;27385;51.096;17.190;2023-07-13T05:09:34;4.10;;;0.80;;
41705;SDS011;27385;51.096;17.190;2023-07-13T05:12:06;5.60;;;1.00;;
41705;SDS011;27385;51.096;17.190;2023-07-13T05:14:38;3.30;;;0.90;;
41705;SDS011;27385;51.096;17.190;2023-07-13T05:17:09;7.70;;;1.30;;
41705;SDS011;27385;51.096;17.190;2023-07-13T05:19:40;6.20;;;1.00;;
41705;SDS011;27385;51.096;17.190;2023-07-13T05:22:10;5.40;;;1.20;;
41705;SDS011;27385;51.096;17.190;2023-07-13T05:24:42;5.50;;;1.00;;
41705;SDS011;27385;51.096;17.190;2023-07-13T05:27:13;7.20;;;1.50;;
41705;SDS011;27385;51.096;17.190;2023-07-13T05:29:44;8.00;;;1.10;;
41705;SDS011;27385;51.096;17.190;2023-07-13T05:32:15;6.40;;;1.50;;
41705;SDS011;27385;51.096;17.190;2023-07-13T05:34:46;8.70;;;1.30;;
41705;SDS011;27385;51.096;17.190;2023-07-13T05:37:17;7.90;;;1.30;;
41705;SDS011;27385;51.096;17.190;2023-07-13T05:39:48;5.90;;;1.10;;
41705;SDS011;27385;51.096;17.190;2023-07-13T05:42:19;7.50;;;1.40;;
41705;SDS011;27385;51.096;17.190;2023-07-13T05:44:50;8.30;;;1.20;;
41705;SDS011;27385;51.096;17.190;2023-07-13T05:47:25;6.90;;;1.40;;
41705;SDS011;27385;51.096;17.190;2023-07-13T05:49:56;5.10;;;1.50;;
41705;SDS011;27385;51.096;17.190;2023-07-13T05:52:27;4.70;;;1.20;;
41705;SDS011;27385;51.096;17.190;2023-07-13T05:54:58;7.20;;;1.30;;
41705;SDS011;27385;51.096;17.190;2023-07-13T05:57:31;5.80;;;1.10;;
41705;SDS011;27385;51.096;17.190;2023-07-13T06:00:02;5.50;;;1.40;;
41705;SDS011;27385;51.096;17.190;2023-07-13T06:02:34;5.90;;;1.30;;
41705;SDS011;27385;51.096;17.190;2023-07-13T06:05:06;4.60;;;1.00;;
41705;SDS011;27385;51.096;17.190;2023-07-13T06:07:38;7.40;;;1.10;;
41705;SDS011;27385;51.096;17.190;2023-07-13T06:10:10;6.10;;;1.30;;
41705;SDS011;27385;51.096;17.190;2023-07-13T06:12:41;4.00;;;1.10;;
41705;SDS011;27385;51.096;17.190;2023-07-13T06:15:12;7.10;;;1.20;;
41705;SDS011;27385;51.096;17.190;2023-07-13T06:17:43;7.80;;;1.20;;
41705;SDS011;27385;51.096;17.190;2023-07-13T06:20:14;5.70;;;1.80;;
41705;SDS011;27385;51.096;17.190;2023-07-13T06:22:45;5.70;;;1.20;;
41705;SDS011;27385;51.096;17.190;2023-07-13T06:25:27;6.00;;;1.10;;
41705;SDS011;27385;51.096;17.190;2023-07-13T06:27:58;5.10;;;1.30;;
41705;SDS011;27385;51.096;17.190;2023-07-13T06:30:29;4.70;;;1.30;;
41705;SDS011;27385;51.096;17.190;2023-07-13T06:33:03;3.70;;;1.10;;
41705;SDS011;27385;51.096;17.190;2023-07-13T06:35:34;4.70;;;1.20;;
41705;SDS011;27385;51.096;17.190;2023-07-13T06:38:05;8.10;;;1.10;;
41705;SDS011;27385;51.096;17.190;2023-07-13T06:40:35;5.90;;;1.00;;
41705;SDS011;27385;51.096;17.190;2023-07-13T06:43:06;4.20;;;1.00;;
41705;SDS011;27385;51.096;17.190;2023-07-13T06:45:40;3.90;;;1.10;;
41705;SDS011;27385;51.096;17.190;2023-07-13T06:48:13;5.60;;;1.50;;
41705;SDS011;27385;51.096;17.190;2023-07-13T06:50:44;4.70;;;1.30;;
41705;SDS011;27385;51.096;17.190;2023-07-13T06:53:17;5.50;;;1.10;;
41705;SDS011;27385;51.096;17.190;2023-07-13T06:55:49;6.20;;;1.20;;
41705;SDS011;27385;51.096;17.190;2023-07-13T06:58:21;7.40;;;1.30;;
41705;SDS011;27385;51.096;17.190;2023-07-13T07:00:52;4.80;;;1.10;;
41705;SDS011;27385;51.096;17.190;2023-07-13T07:03:23;5.90;;;1.10;;
41705;SDS011;27385;51.096;17.190;2023-07-13T07:05:54;4.40;;;1.10;;
41705;SDS011;27385;51.096;17.190;2023-07-13T07:08:28;3.90;;;0.90;;
41705;SDS011;27385;51.096;17.190;2023-07-13T07:11:00;6.50;;;1.20;;
41705;SDS011;27385;51.096;17.190;2023-07-13T07:13:30;4.70;;;1.30;;
41705;SDS011;27385;51.096;17.190;2023-07-13T07:16:02;6.80;;;1.30;;
41705;SDS011;27385;51.096;17.190;2023-07-13T07:18:33;6.10;;;1.10;;
41705;SDS011;27385;51.096;17.190;2023-07-13T07:21:04;5.00;;;1.20;;
41705;SDS011;27385;51.096;17.190;2023-07-13T07:23:35;7.10;;;1.30;;
41705;SDS011;27385;51.096;17.190;2023-07-13T07:26:06;8.00;;;1.90;;
41705;SDS011;27385;51.096;17.190;2023-07-13T07:28:38;6.40;;;1.30;;
41705;SDS011;27385;51.096;17.190;2023-07-13T07:31:09;7.50;;;1.60;;
41705;SDS011;27385;51.096;17.190;2023-07-13T07:33:40;8.70;;;2.20;;
41705;SDS011;27385;51.096;17.190;2023-07-13T07:36:11;7.40;;;1.60;;
41705;SDS011;27385;51.096;17.190;2023-07-13T07:38:42;7.60;;;1.80;;
41705;SDS011;27385;51.096;17.190;2023-07-13T07:41:13;11.90;;;2.20;;
41705;SDS011;27385;51.096;17.190;2023-07-13T07:43:43;9.10;;;2.20;;
41705;SDS011;27385;51.096;17.190;2023-07-13T07:46:14;9.30;;;1.90;;
41705;SDS011;27385;51.096;17.190;2023-07-13T07:48:45;13.80;;;5.50;;
41705;SDS011;27385;51.096;17.190;2023-07-13T07:51:16;18.10;;;4.40;;
41705;SDS011;27385;51.096;17.190;2023-07-13T07:53:47;15.30;;;3.80;;
41705;SDS011;27385;51.096;17.190;2023-07-13T07:56:18;9.90;;;2.70;;
41705;SDS011;27385;51.096;17.190;2023-07-13T07:58:49;9.40;;;2.10;;
41705;SDS011;27385;51.096;17.190;2023-07-13T08:01:19;7.10;;;2.20;;
41705;SDS011;27385;51.096;17.190;2023-07-13T08:03:50;8.70;;;2.20;;
41705;SDS011;27385;51.096;17.190;2023-07-13T08:06:21;11.50;;;2.00;;
41705;SDS011;27385;51.096;17.190;2023-07-13T08:08:52;10.70;;;2.20;;
41705;SDS011;27385;51.096;17.190;2023-07-13T08:11:24;8.10;;;1.80;;
41705;SDS011;27385;51.096;17.190;2023-07-13T08:13:55;7.70;;;2.00;;
41705;SDS011;27385;51.096;17.190;2023-07-13T08:16:26;9.60;;;2.20;;
41705;SDS011;27385;51.096;17.190;2023-07-13T08:18:57;3.70;;;1.30;;
41705;SDS011;27385;51.096;17.190;2023-07-13T08:21:28;5.40;;;1.10;;
41705;SDS011;27385;51.096;17.190;2023-07-13T08:23:59;4.50;;;1.00;;
41705;SDS011;27385;51.096;17.190;2023-07-13T08:26:30;3.80;;;0.90;;
41705;SDS011;27385;51.096;17.190;2023-07-13T08:29:02;4.40;;;1.00;;
41705;SDS011;27385;51.096;17.190;2023-07-13T08:31:33;6.30;;;1.00;;
41705;SDS011;27385;51.096;17.190;2023-07-13T08:34:03;4.20;;;1.00;;
41705;SDS011;27385;51.096;17.190;2023-07-13T08:36:34;3.60;;;0.90;;
41705;SDS011;27385;51.096;17.190;2023-07-13T08:39:06;4.70;;;1.10;;
41705;SDS011;27385;51.096;17.190;2023-07-13T08:41:37;5.00;;;1.40;;
41705;SDS011;27385;51.096;17.190;2023-07-13T08:44:11;5.10;;;1.10;;
41705;SDS011;27385;51.096;17.190;2023-07-13T08:46:55;4.30;;;1.10;;
41705;SDS011;27385;51.096;17.190;2023-07-13T08:49:28;5.70;;;1.30;;
41705;SDS011;27385;51.096;17.190;2023-07-13T08:52:02;7.90;;;1.50;;
41705;SDS011;27385;51.096;17.190;2023-07-13T08:54:41;3.90;;;1.10;;
41705;SDS011;27385;51.096;17.190;2023-07-13T08:57:17;7.70;;;1.40;;
41705;SDS011;27385;51.096;17.190;2023-07-13T08:59:52;6.40;;;1.40;;
41705;SDS011;27385;51.096;17.190;2023-07-13T09:02:25;6.50;;;1.70;;
41705;SDS011;27385;51.096;17.190;2023-07-13T09:05:08;6.20;;;1.30;;
41705;SDS011;27385;51.096;17.190;2023-07-13T09:07:48;5.20;;;1.30;;
41705;SDS011;27385;51.096;17.190;2023-07-13T09:10:31;6.50;;;1.70;;
41705;SDS011;27385;51.096;17.190;2023-07-13T09:13:10;6.20;;;1.70;;
41705;SDS011;27385;51.096;17.190;2023-07-13T09:15:51;10.50;;;2.10;;
41705;SDS011;27385;51.096;17.190;2023-07-13T09:18:23;9.50;;;2.50;;
41705;SDS011;27385;51.096;17.190;2023-07-13T09:20:59;6.40;;;1.90;;
41705;SDS011;27385;51.096;17.190;2023-07-13T09:23:34;12.10;;;2.30;;
41705;SDS011;27385;51.096;17.190;2023-07-13T09:26:06;7.70;;;2.40;;
41705;SDS011;27385;51.096;17.190;2023-07-13T09:28:43;8.80;;;2.70;;
41705;SDS011;27385;51.096;17.190;2023-07-13T09:31:16;9.20;;;3.00;;
41705;SDS011;27385;51.096;17.190;2023-07-13T09:33:53;9.50;;;2.90;;
41705;SDS011;27385;51.096;17.190;2023-07-13T09:36:27;8.70;;;2.60;;
41705;SDS011;27385;51.096;17.190;2023-07-13T09:39:02;10.30;;;3.20;;
41705;SDS011;27385;51.096;17.190;2023-07-13T09:41:41;12.90;;;3.20;;
41705;SDS011;27385;51.096;17.190;2023-07-13T09:44:18;7.70;;;2.50;;
41705;SDS011;27385;51.096;17.190;2023-07-13T09:46:59;10.10;;;2.60;;
41705;SDS011;27385;51.096;17.190;2023-07-13T09:49:33;11.80;;;2.80;;
41705;SDS011;27385;51.096;17.190;2023-07-13T09:52:06;10.80;;;2.90;;
41705;SDS011;27385;51.096;17.190;2023-07-13T09:54:43;10.70;;;2.80;;
41705;SDS011;27385;51.096;17.190;2023-07-13T09:57:18;8.80;;;2.80;;
41705;SDS011;27385;51.096;17.190;2023-07-13T09:59:52;8.60;;;2.50;;
41705;SDS011;27385;51.096;17.190;2023-07-13T10:02:28;9.70;;;2.40;;
41705;SDS011;27385;51.096;17.190;2023-07-13T10:05:02;7.90;;;2.30;;
41705;SDS011;27385;51.096;17.190;2023-07-13T10:07:38;8.10;;;1.90;;
41705;SDS011;27385;51.096;17.190;2023-07-13T10:10:15;9.60;;;2.50;;
41705;SDS011;27385;51.096;17.190;2023-07-13T10:12:48;9.30;;;2.60;;
41705;SDS011;27385;51.096;17.190;2023-07-13T10:15:21;9.70;;;3.30;;
41705;SDS011;27385;51.096;17.190;2023-07-13T10:17:54;9.90;;;1.90;;
41705;SDS011;27385;51.096;17.190;2023-07-13T10:20:26;8.00;;;2.50;;
41705;SDS011;27385;51.096;17.190;2023-07-13T10:23:01;9.20;;;2.20;;
41705;SDS011;27385;51.096;17.190;2023-07-13T10:25:36;7.10;;;1.50;;
41705;SDS011;27385;51.096;17.190;2023-07-13T10:28:16;5.00;;;1.50;;
41705;SDS011;27385;51.096;17.190;2023-07-13T10:30:59;6.90;;;1.40;;
41705;SDS011;27385;51.096;17.190;2023-07-13T10:33:34;6.90;;;1.60;;
41705;SDS011;27385;51.096;17.190;2023-07-13T10:36:22;5.00;;;1.30;;
41705;SDS011;27385;51.096;17.190;2023-07-13T10:39:03;8.30;;;1.50;;
41705;SDS011;27385;51.096;17.190;2023-07-13T10:41:36;6.80;;;1.30;;
41705;SDS011;27385;51.096;17.190;2023-07-13T10:44:12;6.50;;;1.40;;
41705;SDS011;27385;51.096;17.190;2023-07-13T10:46:54;4.40;;;1.20;;
41705;SDS011;27385;51.096;17.190;2023-07-13T10:49:28;5.70;;;1.10;;
41705;SDS011;27385;51.096;17.190;2023-07-13T10:52:01;4.60;;;1.10;;
41705;SDS011;27385;51.096;17.190;2023-07-13T10:54:33;5.40;;;1.10;;
41705;SDS011;27385;51.096;17.190;2023-07-13T10:57:20;6.10;;;1.10;;
41705;SDS011;27385;51.096;17.190;2023-07-13T11:03:03;5.50;;;1.10;;
41705;SDS011;27385;51.096;17.190;2023-07-13T11:05:42;7.60;;;1.40;;
41705;SDS011;27385;51.096;17.190;2023-07-13T11:08:18;6.90;;;1.30;;
41705;SDS011;27385;51.096;17.190;2023-07-13T11:11:01;4.30;;;1.00;;
41705;SDS011;27385;51.096;17.190;2023-07-13T11:13:37;5.50;;;1.00;;
41705;SDS011;27385;51.096;17.190;2023-07-13T11:16:36;5.20;;;1.10;;
41705;SDS011;27385;51.096;17.190;2023-07-13T11:19:27;8.50;;;1.50;;
41705;SDS011;27385;51.096;17.190;2023-07-13T11:22:12;7.20;;;1.20;;
41705;SDS011;27385;51.096;17.190;2023-07-13T11:24:57;4.20;;;0.80;;
41705;SDS011;27385;51.096;17.190;2023-07-13T11:27:40;3.40;;;0.80;;
41705;SDS011;27385;51.096;17.190;2023-07-13T11:30:31;2.90;;;0.70;;
41705;SDS011;27385;51.096;17.190;2023-07-13T11:33:15;7.90;;;0.90;;
41705;SDS011;27385;51.096;17.190;2023-07-13T11:35:53;4.20;;;0.60;;
41705;SDS011;27385;51.096;17.190;2023-07-13T11:38:37;5.20;;;0.70;;
41705;SDS011;27385;51.096;17.190;2023-07-13T11:41:13;8.60;;;1.10;;
41705;SDS011;27385;51.096;17.190;2023-07-13T11:43:48;6.50;;;0.70;;
41705;SDS011;27385;51.096;17.190;2023-07-13T11:46:20;4.80;;;0.80;;
41705;SDS011;27385;51.096;17.190;2023-07-13T11:48:54;3.30;;;0.80;;
41705;SDS011;27385;51.096;17.190;2023-07-13T11:51:26;11.00;;;0.80;;
41705;SDS011;27385;51.096;17.190;2023-07-13T11:54:01;5.40;;;1.00;;
41705;SDS011;27385;51.096;17.190;2023-07-13T11:56:35;5.20;;;0.60;;
41705;SDS011;27385;51.096;17.190;2023-07-13T11:59:07;5.90;;;1.00;;
41705;SDS011;27385;51.096;17.190;2023-07-13T12:01:43;4.10;;;0.70;;
41705;SDS011;27385;51.096;17.190;2023-07-13T12:04:20;4.70;;;0.60;;
41705;SDS011;27385;51.096;17.190;2023-07-13T12:06:56;4.30;;;0.60;;
41705;SDS011;27385;51.096;17.190;2023-07-13T12:09:33;3.10;;;0.50;;
41705;SDS011;27385;51.096;17.190;2023-07-13T12:12:09;4.60;;;0.70;;
41705;SDS011;27385;51.096;17.190;2023-07-13T12:14:41;2.80;;;0.70;;
41705;SDS011;27385;51.096;17.190;2023-07-13T12:17:15;7.00;;;0.60;;
41705;SDS011;27385;51.096;17.190;2023-07-13T12:19:49;2.80;;;0.70;;
41705;SDS011;27385;51.096;17.190;2023-07-13T12:22:21;5.80;;;0.90;;
41705;SDS011;27385;51.096;17.190;2023-07-13T12:24:52;6.20;;;0.80;;
41705;SDS011;27385;51.096;17.190;2023-07-13T12:27:25;4.50;;;0.70;;
41705;SDS011;27385;51.096;17.190;2023-07-13T12:29:59;5.60;;;0.60;;
41705;SDS011;27385;51.096;17.190;2023-07-13T12:32:33;3.10;;;0.70;;
41705;SDS011;27385;51.096;17.190;2023-07-13T12:35:12;8.80;;;0.80;;
41705;SDS011;27385;51.096;17.190;2023-07-13T12:37:47;6.20;;;0.70;;
41705;SDS011;27385;51.096;17.190;2023-07-13T12:40:21;3.00;;;0.70;;
41705;SDS011;27385;51.096;17.190;2023-07-13T12:43:00;5.30;;;0.80;;
41705;SDS011;27385;51.096;17.190;2023-07-13T12:45:34;3.70;;;0.70;;
41705;SDS011;27385;51.096;17.190;2023-07-13T12:48:06;2.50;;;0.90;;
41705;SDS011;27385;51.096;17.190;2023-07-13T12:50:46;4.70;;;0.60;;
41705;SDS011;27385;51.096;17.190;2023-07-13T12:53:20;5.30;;;0.70;;
41705;SDS011;27385;51.096;17.190;2023-07-13T12:55:53;5.50;;;0.90;;
41705;SDS011;27385;51.096;17.190;2023-07-13T12:58:28;2.80;;;0.60;;
41705;SDS011;27385;51.096;17.190;2023-07-13T13:01:01;3.80;;;0.70;;
41705;SDS011;27385;51.096;17.190;2023-07-13T13:03:35;7.20;;;0.80;;
41705;SDS011;27385;51.096;17.190;2023-07-13T13:06:20;6.90;;;0.80;;
41705;SDS011;27385;51.096;17.190;2023-07-13T13:08:54;4.70;;;0.80;;
41705;SDS011;27385;51.096;17.190;2023-07-13T13:11:27;8.20;;;0.70;;
41705;SDS011;27385;51.096;17.190;2023-07-13T13:14:00;4.50;;;0.70;;
41705;SDS011;27385;51.096;17.190;2023-07-13T13:16:33;6.60;;;0.60;;
41705;SDS011;27385;51.096;17.190;2023-07-13T13:19:10;4.80;;;0.60;;
41705;SDS011;27385;51.096;17.190;2023-07-13T13:21:44;3.10;;;0.60;;
41705;SDS011;27385;51.096;17.190;2023-07-13T13:24:16;6.40;;;0.50;;
41705;SDS011;27385;51.096;17.190;2023-07-13T13:26:50;3.70;;;0.90;;
41705;SDS011;27385;51.096;17.190;2023-07-13T13:29:24;5.80;;;0.60;;
41705;SDS011;27385;51.096;17.190;2023-07-13T13:31:55;4.10;;;0.60;;
41705;SDS011;27385;51.096;17.190;2023-07-13T13:34:27;4.20;;;0.80;;
41705;SDS011;27385;51.096;17.190;2023-07-13T13:36:58;4.90;;;0.90;;
41705;SDS011;27385;51.096;17.190;2023-07-13T13:39:29;4.00;;;0.70;;
41705;SDS011;27385;51.096;17.190;2023-07-13T13:42:04;2.10;;;0.50;;
41705;SDS011;27385;51.096;17.190;2023-07-13T13:44:38;2.10;;;0.60;;
41705;SDS011;27385;51.096;17.190;2023-07-13T13:47:16;3.90;;;0.70;;
41705;SDS011;27385;51.096;17.190;2023-07-13T13:49:56;3.40;;;0.60;;
41705;SDS011;27385;51.096;17.190;2023-07-13T13:52:28;3.60;;;0.60;;
41705;SDS011;27385;51.096;17.190;2023-07-13T13:55:00;5.50;;;0.70;;
41705;SDS011;27385;51.096;17.190;2023-07-13T13:57:31;3.40;;;0.50;;
41705;SDS011;27385;51.096;17.190;2023-07-13T14:00:02;5.30;;;1.00;;
41705;SDS011;27385;51.096;17.190;2023-07-13T14:02:34;3.10;;;0.50;;
41705;SDS011;27385;51.096;17.190;2023-07-13T14:05:05;2.80;;;0.50;;
41705;SDS011;27385;51.096;17.190;2023-07-13T14:07:39;3.50;;;0.60;;
41705;SDS011;27385;51.096;17.190;2023-07-13T14:10:11;4.70;;;0.70;;
41705;SDS011;27385;51.096;17.190;2023-07-13T14:12:47;6.50;;;0.70;;
41705;SDS011;27385;51.096;17.190;2023-07-13T14:15:22;4.00;;;0.60;;
41705;SDS011;27385;51.096;17.190;2023-07-13T14:17:54;4.30;;;0.60;;
41705;SDS011;27385;51.096;17.190;2023-07-13T14:20:25;4.50;;;0.60;;
41705;SDS011;27385;51.096;17.190;2023-07-13T14:22:57;4.50;;;0.70;;
41705;SDS011;27385;51.096;17.190;2023-07-13T14:25:28;2.20;;;0.50;;
41705;SDS011;27385;51.096;17.190;2023-07-13T14:28:17;4.40;;;0.50;;
41705;SDS011;27385;51.096;17.190;2023-07-13T14:30:50;2.30;;;0.50;;
41705;SDS011;27385;51.096;17.190;2023-07-13T14:33:22;3.50;;;0.70;;
41705;SDS011;27385;51.096;17.190;2023-07-13T14:35:54;6.80;;;0.90;;
41705;SDS011;27385;51.096;17.190;2023-07-13T14:38:25;3.80;;;0.60;;
41705;SDS011;27385;51.096;17.190;2023-07-13T14:40:56;4.00;;;0.50;;
41705;SDS011;27385;51.096;17.190;2023-07-13T14:43:27;3.00;;;0.50;;
41705;SDS011;27385;51.096;17.190;2023-07-13T14:45:57;5.90;;;0.60;;
41705;SDS011;27385;51.096;17.190;2023-07-13T14:48:29;5.00;;;0.60;;
41705;SDS011;27385;51.096;17.190;2023-07-13T14:51:00;5.60;;;0.60;;
41705;SDS011;27385;51.096;17.190;2023-07-13T14:53:31;2.90;;;0.40;;
41705;SDS011;27385;51.096;17.190;2023-07-13T14:56:10;3.50;;;0.60;;
41705;SDS011;27385;51.096;17.190;2023-07-13T14:58:42;5.00;;;0.50;;
41705;SDS011;27385;51.096;17.190;2023-07-13T15:01:14;2.80;;;0.60;;
41705;SDS011;27385;51.096;17.190;2023-07-13T15:03:47;4.90;;;0.60;;
41705;SDS011;27385;51.096;17.190;2023-07-13T15:06:20;5.30;;;0.50;;
41705;SDS011;27385;51.096;17.190;2023-07-13T15:08:51;3.30;;;0.80;;